Time;durP1;ratioP1;P1;durP2;ratioP2;P2;SDS_P1;SDS_P2;PMS_P1;PMS_P2;Temp;Humidity;BMP_temperature;BMP_pressure;BME280_temperature;BME280_humidity;BME280_pressure;Samples;Min_cycle;Max_cycle;Signal;HPM_P1;HPM_P2
2021/01/09 00:00:34;;;;;;;46.92;26.23;;;;;;;0.39;79.08;99274.08;1808752;78;20967;-78
2021/01/09 00:03:02;;;;;;;47.13;26.20;;;;;;;0.39;79.16;99274.08;1809316;78;21418;-76
2021/01/09 00:05:33;;;;;;;49.30;25.48;;;;;;;0.39;79.28;99271.36;1799403;78;20982;-77
2021/01/09 00:08:03;;;;;;;46.25;25.05;;;;;;;0.40;79.21;99274.34;1746370;81;21162;-78
2021/01/09 00:10:33;;;;;;;50.78;25.20;;;;;;;0.42;79.22;99273.02;1747075;81;21161;-74
2021/01/09 00:13:01;;;;;;;46.18;25.25;;;;;;;0.41;79.34;99276.80;1745109;81;21122;-76
2021/01/09 00:15:29;;;;;;;43.87;23.60;;;;;;;0.44;79.31;99273.59;1739182;80;21187;-78
2021/01/09 00:17:57;;;;;;;46.33;26.05;;;;;;;0.45;79.36;99279.28;1737645;81;21534;-78
2021/01/09 00:20:24;;;;;;;44.48;25.52;;;;;;;0.47;79.47;99278.48;1749250;81;21154;-78
2021/01/09 00:22:52;;;;;;;44.53;25.00;;;;;;;0.51;79.39;99271.19;1741457;81;21156;-80
2021/01/09 00:26:11;;;;;;;44.33;24.52;;;;;;;0.53;79.38;99273.91;1734973;81;21606;-75
2021/01/09 00:32:52;;;;;;;46.30;25.25;;;;;;;0.55;79.29;99279.06;1722155;82;21209;-77
2021/01/09 00:35:20;;;;;;;46.33;27.45;;;;;;;0.53;79.37;99277.17;1740395;81;21601;-78
2021/01/09 00:37:47;;;;;;;45.65;25.80;;;;;;;0.50;79.33;99279.03;1736591;81;21161;-75
2021/01/09 00:40:14;;;;;;;42.50;25.12;;;;;;;0.45;79.40;99273.03;1733469;81;21102;-76
2021/01/09 00:42:44;;;;;;;48.48;25.72;;;;;;;0.45;79.46;99279.28;1744788;81;22236;-75
2021/01/09 00:45:13;;;;;;;45.50;25.27;;;;;;;0.44;79.53;99272.23;1737505;81;21129;-75
2021/01/09 00:48:41;;;;;;;46.90;24.52;;;;;;;0.44;79.52;99280.90;1726282;81;21200;-75
2021/01/09 00:52:03;;;;;;;47.25;24.92;;;;;;;0.43;79.58;99273.82;1739323;81;21162;-76
2021/01/09 00:54:50;;;;;;;45.08;26.00;;;;;;;0.42;79.66;99277.09;1718988;81;21113;-76
2021/01/09 00:57:18;;;;;;;49.80;25.90;;;;;;;0.44;79.74;99275.47;1730083;81;21408;-78
2021/01/09 00:59:50;;;;;;;48.65;26.48;;;;;;;0.44;79.83;99272.23;1731916;82;21571;-76
2021/01/09 01:03:30;;;;;;;53.10;28.15;;;;;;;0.45;79.77;99269.79;1774957;80;21087;-75
2021/01/09 01:06:48;;;;;;;48.40;28.50;;;;;;;0.43;79.70;99269.75;1785369;78;21110;-78
2021/01/09 01:10:00;;;;;;;47.45;24.90;;;;;;;0.41;79.85;99263.80;1732263;80;21146;-78
2021/01/09 01:12:51;;;;;;;49.45;25.62;;;;;;;0.39;79.98;99261.34;1793547;79;21224;-76
2021/01/09 01:16:02;;;;;;;46.35;25.60;;;;;;;0.40;80.16;99256.72;1676799;84;21268;-78
2021/01/09 01:19:26;;;;;;;50.08;25.88;;;;;;;0.40;80.11;99256.19;1628819;86;21202;-78
2021/01/09 01:22:50;;;;;;;45.55;24.77;;;;;;;0.42;80.30;99253.22;1745910;82;21266;-76
2021/01/09 01:25:18;;;;;;;52.55;27.90;;;;;;;0.44;80.33;99253.26;1752300;80;21165;-77
2021/01/09 01:27:45;;;;;;;50.23;26.77;;;;;;;0.47;80.36;99251.91;1756519;80;21578;-73
2021/01/09 01:30:14;;;;;;;50.52;27.15;;;;;;;0.46;80.25;99250.28;1751791;80;21161;-79
2021/01/09 01:32:43;;;;;;;49.73;26.87;;;;;;;0.46;80.23;99245.66;1690480;83;21189;-79
2021/01/09 01:35:11;;;;;;;50.70;27.22;;;;;;;0.46;80.23;99245.66;1747777;82;21180;-78
2021/01/09 01:37:39;;;;;;;54.18;28.92;;;;;;;0.45;80.21;99252.17;1752395;80;21166;-80
2021/01/09 01:40:07;;;;;;;52.23;28.30;;;;;;;0.44;80.30;99242.94;1752543;80;22253;-78
2021/01/09 01:42:35;;;;;;;48.35;27.67;;;;;;;0.44;80.34;99246.48;1751974;80;21155;-77
2021/01/09 01:45:04;;;;;;;52.65;27.60;;;;;;;0.45;80.41;99245.92;1754910;80;21169;-76
2021/01/09 01:47:32;;;;;;;46.73;26.10;;;;;;;0.46;80.48;99244.86;1755854;80;21145;-78
2021/01/09 01:50:03;;;;;;;48.48;29.15;;;;;;;0.45;80.58;99241.85;1744511;80;21193;-77
2021/01/09 01:52:31;;;;;;;46.95;26.17;;;;;;;0.45;80.54;99244.56;1699942;83;21224;-74
2021/01/09 01:54:58;;;;;;;53.83;28.15;;;;;;;0.43;80.61;99238.05;1779087;80;21134;-77
2021/01/09 01:57:27;;;;;;;52.08;28.70;;;;;;;0.44;80.69;99231.56;1788375;78;21522;-80
2021/01/09 02:01:05;;;;;;;46.55;26.25;;;;;;;0.45;80.68;99236.43;1713066;83;21192;-78
2021/01/09 02:04:46;;;;;;;53.28;28.07;;;;;;;0.42;80.70;99233.71;1683380;84;21227;-78
2021/01/09 02:07:38;;;;;;;50.15;26.80;;;;;;;0.38;80.69;99225.80;1693202;82;21248;-78
2021/01/09 02:10:07;;;;;;;55.03;29.20;;;;;;;0.39;80.88;99225.27;1694415;84;21224;-80
2021/01/09 02:13:05;;;;;;;50.08;27.85;;;;;;;0.40;81.00;99227.72;1712779;83;21696;-78
2021/01/09 02:15:33;;;;;;;53.50;28.10;;;;;;;0.44;81.04;99225.31;1681668;84;21129;-78
2021/01/09 02:18:00;;;;;;;51.68;27.65;;;;;;;0.46;81.01;99225.88;1693692;84;21665;-78
2021/01/09 02:20:28;;;;;;;50.52;26.93;;;;;;;0.47;81.03;99223.44;1682628;84;21375;-76
2021/01/09 02:22:58;;;;;;;45.45;25.95;;;;;;;0.50;81.05;99225.63;1690070;84;21645;-75
2021/01/09 02:30:14;;;;;;;57.03;30.77;;;;;;;0.53;81.10;99227.81;1692910;84;21220;-76
2021/01/09 02:33:05;;;;;;;54.65;29.42;;;;;;;0.58;81.15;99225.13;1695277;84;21129;-79
2021/01/09 02:35:35;;;;;;;59.80;30.45;;;;;;;0.56;80.98;99218.35;1693758;84;21381;-81
2021/01/09 02:38:06;;;;;;;53.63;27.37;;;;;;;0.54;81.01;99215.08;1704263;83;21240;-79
2021/01/09 02:40:40;;;;;;;53.23;27.82;;;;;;;0.54;80.99;99216.44;1747484;81;21678;-78
2021/01/09 02:43:16;;;;;;;60.92;28.38;;;;;;;0.55;80.98;99216.17;1748211;81;21176;-78
2021/01/09 02:46:37;;;;;;;;;;;;;;;0.57;81.10;99211.31;1729929;81;21113;-79
2021/01/09 02:53:56;;;;;;;51.75;28.35;;;;;;;0.58;81.20;99211.58;1698745;80;21185;-79
2021/01/09 02:56:25;;;;;;;49.65;27.87;;;;;;;0.60;81.23;99218.09;1779492;80;21184;-73
2021/01/09 02:58:54;;;;;;;53.38;28.80;;;;;;;0.59;81.19;99215.94;1786478;79;21142;-77
2021/01/09 03:01:29;;;;;;;56.40;30.90;;;;;;;0.58;81.12;99218.36;1782505;80;21103;-78
2021/01/09 03:03:57;;;;;;;56.25;30.45;;;;;;;0.57;81.12;99213.20;1782152;80;21369;-74
2021/01/09 03:06:25;;;;;;;54.45;28.95;;;;;;;0.55;81.07;99217.52;1782743;80;21543;-78
2021/01/09 03:08:54;;;;;;;57.30;29.32;;;;;;;0.55;81.08;99219.41;1789538;79;21122;-78
2021/01/09 03:11:22;;;;;;;54.50;28.60;;;;;;;0.54;81.18;99217.78;1786472;79;21090;-76
2021/01/09 03:13:50;;;;;;;53.13;29.63;;;;;;;0.56;81.24;99214.28;1782521;80;21122;-77
2021/01/09 03:16:17;;;;;;;54.13;28.20;;;;;;;0.56;81.16;99212.37;1786268;79;21382;-77
2021/01/09 03:18:45;;;;;;;57.95;31.05;;;;;;;0.56;81.23;99219.14;1785695;79;21111;-80
2021/01/09 03:21:15;;;;;;;56.75;30.17;;;;;;;0.58;81.28;99216.20;1782698;80;21138;-75
2021/01/09 03:24:05;;;;;;;48.95;28.42;;;;;;;0.59;81.28;99217.83;1789420;79;21138;-78
2021/01/09 03:26:33;;;;;;;51.15;29.82;;;;;;;0.61;81.25;99212.97;1788366;79;21082;-78
2021/01/09 03:29:00;;;;;;;50.23;28.67;;;;;;;0.59;81.22;99213.75;1721941;82;21659;-76
2021/01/09 03:31:29;;;;;;;55.65;30.30;;;;;;;0.60;81.30;99214.84;1720713;82;21201;-79
2021/01/09 03:33:58;;;;;;;51.92;28.55;;;;;;;0.60;81.28;99216.73;1722710;82;21143;-77
2021/01/09 03:36:30;;;;;;;55.10;29.25;;;;;;;0.59;81.29;99219.18;1719749;82;21154;-77
2021/01/09 03:38:58;;;;;;;53.85;30.48;;;;;;;0.59;81.32;99215.11;1786324;79;21153;-75
2021/01/09 03:41:29;;;;;;;53.65;29.32;;;;;;;0.58;81.41;99221.06;1719629;82;22311;-76
2021/01/09 03:43:58;;;;;;;51.60;29.27;;;;;;;0.56;81.32;99215.64;1784549;78;21115;-79
2021/01/09 03:46:26;;;;;;;53.35;28.73;;;;;;;0.54;81.34;99221.33;1790143;79;21162;-78
2021/01/09 03:48:53;;;;;;;49.10;28.40;;;;;;;0.53;81.47;99220.23;1784700;78;21169;-74
2021/01/09 03:51:21;;;;;;;57.08;30.40;;;;;;;0.51;81.57;99221.85;1782878;80;21138;-75
2021/01/09 03:53:48;;;;;;;52.03;29.48;;;;;;;0.48;81.60;99221.81;1771635;79;21528;-78
2021/01/09 03:56:15;;;;;;;58.78;30.02;;;;;;;0.50;81.66;99222.91;1788546;79;21102;-81
2021/01/09 03:58:43;;;;;;;55.65;30.12;;;;;;;0.48;81.77;99220.46;1786079;79;21101;-80
2021/01/09 04:01:11;;;;;;;52.13;28.00;;;;;;;0.52;81.82;99222.65;1786045;79;21657;-76
2021/01/09 04:03:38;;;;;;;54.65;30.12;;;;;;;0.52;81.85;99226.72;1782620;80;21125;-77
2021/01/09 04:06:05;;;;;;;51.80;28.02;;;;;;;0.55;81.78;99230.26;1794210;79;21227;-75
2021/01/09 04:08:33;;;;;;;51.02;29.15;;;;;;;0.54;81.72;99230.81;1721446;82;21117;-77
2021/01/09 04:11:01;;;;;;;59.00;31.10;;;;;;;0.55;81.82;99228.91;1723928;82;21152;-78
2021/01/09 04:13:29;;;;;;;53.17;28.50;;;;;;;0.57;81.90;99232.17;1744842;82;21122;-78
2021/01/09 04:20:38;;;;;;;57.58;29.70;;;;;;;0.57;81.90;99230.30;1786408;79;21101;-76
2021/01/09 04:23:05;;;;;;;53.75;28.90;;;;;;;0.56;81.92;99237.33;1782021;80;21165;-78
2021/01/09 04:25:34;;;;;;;53.28;29.42;;;;;;;0.58;82.02;99235.19;1789069;79;21539;-77
2021/01/09 04:28:03;;;;;;;56.30;29.70;;;;;;;0.57;81.97;99241.14;1782447;80;21130;-77
2021/01/09 04:30:31;;;;;;;54.93;31.37;;;;;;;0.55;81.87;99241.94;1783667;78;21102;-75
2021/01/09 04:37:30;;;;;;;59.70;31.05;;;;;;;0.53;82.00;99236.50;1723325;82;21193;-76
2021/01/09 04:40:35;;;;;;;53.45;30.27;;;;;;;0.52;82.10;99235.67;1662348;85;21150;-77
2021/01/09 04:43:03;;;;;;;53.08;29.80;;;;;;;0.51;82.19;99233.23;1662114;85;21145;-77
2021/01/09 04:45:31;;;;;;;60.35;32.30;;;;;;;0.48;82.14;99234.02;1652771;86;21149;-80
2021/01/09 04:47:59;;;;;;;54.42;29.87;;;;;;;0.47;82.16;99235.11;1681069;84;22135;-79
2021/01/09 04:50:26;;;;;;;53.23;29.92;;;;;;;0.46;82.26;99237.52;1664090;85;21146;-74
2021/01/09 04:52:54;;;;;;;52.78;29.98;;;;;;;0.48;82.27;99243.51;1644712;85;21212;-78
2021/01/09 04:55:27;;;;;;;61.55;31.27;;;;;;;0.50;82.31;99242.42;1649890;85;21197;-80
2021/01/09 04:57:55;;;;;;;57.20;30.72;;;;;;;0.50;82.35;99241.89;1637949;86;21201;-78
2021/01/09 05:00:22;;;;;;;59.23;32.10;;;;;;;0.51;82.26;99243.55;1723988;82;21410;-76
2021/01/09 05:02:52;;;;;;;56.15;31.82;;;;;;;0.50;82.28;99249.20;1703360;82;21538;-77
2021/01/09 05:05:44;;;;;;;59.23;30.70;;;;;;;0.48;82.31;99250.81;1766846;80;21129;-72
2021/01/09 05:08:11;;;;;;;64.58;34.70;;;;;;;0.48;82.36;99255.71;1780897;80;21130;-77
2021/01/09 05:10:40;;;;;;;63.45;34.60;;;;;;;0.48;82.33;99254.89;1780189;80;21129;-76
2021/01/09 05:13:23;;;;;;;56.28;32.03;;;;;;;0.47;82.38;99256.80;1751365;80;21506;-77
2021/01/09 05:15:54;;;;;;;57.25;29.87;;;;;;;0.48;82.38;99257.06;1771815;80;21575;-76
2021/01/09 05:18:22;;;;;;;57.17;30.80;;;;;;;0.47;82.44;99262.22;1781936;80;21584;-75
2021/01/09 05:20:50;;;;;;;67.85;31.97;;;;;;;0.48;82.48;99261.13;1747349;80;21122;-76
2021/01/09 05:23:17;;;;;;;56.40;31.27;;;;;;;0.50;82.60;99257.33;1772707;80;21110;-75
2021/01/09 05:25:47;;;;;;;60.98;29.52;;;;;;;0.52;82.61;99267.39;1781839;80;22919;-76
2021/01/09 05:28:17;;;;;;;59.73;30.57;;;;;;;0.53;82.67;99266.33;1777433;80;21158;-77
2021/01/09 05:30:48;;;;;;;59.08;33.05;;;;;;;0.56;82.75;99268.52;1693831;80;21082;-79
2021/01/09 05:33:16;;;;;;;62.10;31.77;;;;;;;0.57;82.68;99264.19;1705986;83;21161;-78
2021/01/09 05:35:44;;;;;;;62.45;32.55;;;;;;;0.56;82.72;99269.87;1727308;82;21130;-78
2021/01/09 05:38:11;;;;;;;59.27;29.87;;;;;;;0.60;82.64;99269.62;1709752;83;21165;-79
2021/01/09 05:40:40;;;;;;;58.13;31.35;;;;;;;0.58;82.69;99279.38;1731790;82;21153;-77
2021/01/09 05:43:10;;;;;;;54.70;29.25;;;;;;;0.54;82.52;99282.87;1727068;82;21585;-76
2021/01/09 05:45:39;;;;;;;55.75;31.23;;;;;;;0.52;82.66;99283.66;1719217;82;21602;-79
2021/01/09 05:48:08;;;;;;;57.33;30.97;;;;;;;0.52;82.84;99289.08;1691133;83;21632;-78
2021/01/09 05:50:43;;;;;;;63.15;33.28;;;;;;;0.53;82.79;99290.17;1707578;83;21959;-78
2021/01/09 05:53:47;;;;;;;60.17;32.40;;;;;;;0.53;82.82;99293.45;1706099;83;21575;-77
2021/01/09 05:56:21;;;;;;;60.63;31.50;;;;;;;0.52;82.83;99291.80;1739914;82;21666;-79
2021/01/09 05:58:50;;;;;;;62.30;33.40;;;;;;;0.46;82.79;99299.88;1735068;82;21122;-75
2021/01/09 06:01:28;;;;;;;64.20;32.70;;;;;;;0.45;82.83;99294.72;1789960;79;21177;-75
2021/01/09 06:04:05;;;;;;;58.30;29.95;;;;;;;0.43;82.93;99296.34;1785778;79;22229;-80
2021/01/09 06:06:48;;;;;;;61.92;32.08;;;;;;;0.42;82.92;99302.02;1729379;82;21138;-80
2021/01/09 06:09:21;;;;;;;55.05;32.50;;;;;;;0.42;83.07;99307.44;1719867;83;21665;-76
2021/01/09 06:11:48;;;;;;;59.13;33.38;;;;;;;0.42;83.06;99308.27;1722923;82;21170;-80
2021/01/09 06:14:16;;;;;;;56.48;31.35;;;;;;;0.40;83.20;99309.06;1790139;79;21095;-75
2021/01/09 06:17:27;;;;;;;61.70;33.23;;;;;;;0.42;83.25;99309.63;1755503;80;21599;-80
2021/01/09 06:19:57;;;;;;;64.10;35.23;;;;;;;0.44;83.34;99314.26;1724850;82;21596;-75
2021/01/09 06:22:26;;;;;;;74.03;37.73;;;;;;;0.47;83.36;99319.69;1720633;82;21142;-77
2021/01/09 06:24:57;;;;;;;71.07;34.50;;;;;;;0.51;83.36;99321.36;1753654;80;21587;-79
2021/01/09 06:27:30;;;;;;;61.75;34.05;;;;;;;0.50;83.33;99318.34;1726071;82;21129;-76
2021/01/09 06:30:02;;;;;;;70.10;36.90;;;;;;;0.50;83.36;99322.41;1736523;82;22929;-79
2021/01/09 06:32:37;;;;;;;62.10;34.20;;;;;;;0.51;83.34;99330.84;1791794;79;21137;-76
2021/01/09 06:35:08;;;;;;;60.12;33.80;;;;;;;0.50;83.23;99326.48;1782069;78;21137;-77
2021/01/09 06:37:37;;;;;;;58.08;32.33;;;;;;;0.47;83.37;99327.30;1788071;79;21197;-77
2021/01/09 06:40:08;;;;;;;64.72;33.50;;;;;;;0.48;83.40;99331.63;1752604;79;21149;-72
2021/01/09 06:42:37;;;;;;;59.98;32.88;;;;;;;0.51;83.34;99333.56;1770065;79;21426;-77
2021/01/09 06:45:08;;;;;;;62.10;34.33;;;;;;;0.49;83.46;99333.81;1743587;79;21408;-78
2021/01/09 06:47:35;;;;;;;58.30;30.23;;;;;;;0.51;83.52;99339.80;1762611;79;22173;-78
2021/01/09 06:50:32;;;;;;;61.58;31.73;;;;;;;0.53;83.48;99340.34;1792563;79;21115;-74
2021/01/09 06:53:01;;;;;;;58.45;31.68;;;;;;;0.54;83.39;99339.28;1784543;79;21589;-78
2021/01/09 06:55:44;;;;;;;57.45;32.25;;;;;;;0.55;83.33;99344.16;1783496;79;21357;-76
2021/01/09 06:58:16;;;;;;;63.25;33.15;;;;;;;0.57;83.39;99338.77;1787469;79;21181;-77
2021/01/09 07:00:45;;;;;;;65.55;35.00;;;;;;;0.58;83.47;99347.17;1786587;79;21058;-75
2021/01/09 07:03:24;;;;;;;62.50;34.45;;;;;;;0.57;83.37;99348.26;1790975;79;21161;-76
2021/01/09 07:06:12;;;;;;;56.55;30.55;;;;;;;0.57;83.31;99344.72;1794961;79;21522;-76
2021/01/09 07:08:46;;;;;;;61.02;32.23;;;;;;;0.55;83.44;99345.51;1786414;80;22243;-76
2021/01/09 07:11:15;;;;;;;66.60;35.48;;;;;;;0.54;83.43;99342.00;1788955;79;21142;-75
2021/01/09 07:13:45;;;;;;;62.95;35.52;;;;;;;0.55;83.52;99353.11;1792713;79;21160;-77
2021/01/09 07:16:14;;;;;;;68.30;37.73;;;;;;;0.58;83.62;99348.53;1764418;79;21138;-76
2021/01/09 07:19:11;;;;;;;68.90;36.95;;;;;;;0.60;83.49;99353.16;1786641;79;21187;-78
2021/01/09 07:21:39;;;;;;;55.90;28.70;;;;;;;0.57;83.42;99353.69;1786696;79;21538;-78
2021/01/09 07:24:09;;;;;;;64.75;35.78;;;;;;;0.58;83.53;99356.66;1768853;79;21165;-74
2021/01/09 07:27:01;;;;;;;66.60;34.92;;;;;;;0.59;83.54;99359.67;1700896;83;21137;-78
2021/01/09 07:29:31;;;;;;;73.62;37.67;;;;;;;0.61;83.62;99364.84;1729190;81;21128;-76
2021/01/09 07:36:37;;;;;;;65.35;32.17;;;;;;;0.63;83.41;99358.63;1778855;80;25899;-73
2021/01/09 07:39:07;;;;;;;66.65;34.83;;;;;;;0.63;83.51;99364.05;1780208;80;21133;-74
2021/01/09 07:41:37;;;;;;;63.25;31.93;;;;;;;0.64;83.56;99365.67;1775602;80;21172;-78
2021/01/09 07:44:15;;;;;;;65.50;34.67;;;;;;;0.65;83.54;99364.59;1776768;80;21197;-74
2021/01/09 07:47:05;;;;;;;58.42;29.98;;;;;;;0.65;83.49;99365.94;1775731;80;21572;-75
2021/01/09 07:49:36;;;;;;;65.40;35.23;;;;;;;0.68;83.62;99366.78;1779933;80;21538;-75
2021/01/09 07:52:09;;;;;;;66.37;35.20;;;;;;;0.70;83.62;99367.91;1777874;80;21256;-77
2021/01/09 07:54:47;;;;;;;66.00;34.38;;;;;;;0.71;83.65;99371.71;1781395;80;21134;-75
2021/01/09 07:57:30;;;;;;;70.10;36.60;;;;;;;0.75;83.64;99375.27;1756389;80;21165;-76
2021/01/09 08:00:02;;;;;;;65.70;35.30;;;;;;;0.77;83.52;99377.19;1775266;80;21581;-80
2021/01/09 08:02:38;;;;;;;67.90;35.98;;;;;;;0.78;83.47;99378.81;1775533;80;21197;-76
2021/01/09 08:06:06;;;;;;;69.35;35.50;;;;;;;0.76;83.44;99381.78;1774536;80;21137;-76
2021/01/09 08:08:52;;;;;;;59.65;32.85;;;;;;;0.76;83.38;99376.89;1776192;80;21139;-78
2021/01/09 08:11:24;;;;;;;63.28;34.78;;;;;;;0.72;83.42;99377.41;1775810;80;21107;-75
2021/01/09 08:13:52;;;;;;;58.35;31.77;;;;;;;0.72;83.45;99377.94;1775064;80;21555;-77
2021/01/09 08:16:26;;;;;;;62.95;33.05;;;;;;;0.71;83.57;99377.14;1777146;80;21442;-78
2021/01/09 08:18:54;;;;;;;66.17;35.92;;;;;;;0.67;83.69;99378.72;1759161;79;21149;-77
2021/01/09 08:21:32;;;;;;;70.62;36.10;;;;;;;0.67;84.00;99378.72;1727357;82;21546;-75
2021/01/09 08:24:03;;;;;;;72.87;37.00;;;;;;;0.69;84.13;99377.09;1787022;79;21127;-73
2021/01/09 08:26:55;;;;;;;65.90;35.73;;;;;;;0.75;84.12;99384.75;1784735;79;21055;-77
2021/01/09 08:29:33;;;;;;;69.42;36.65;;;;;;;0.76;84.05;99383.67;1784587;79;21133;-77
2021/01/09 08:32:02;;;;;;;67.22;35.98;;;;;;;0.78;83.91;99382.88;1782528;80;21571;-78
2021/01/09 08:35:18;;;;;;;61.60;32.30;;;;;;;0.82;84.05;99375.87;1770632;79;21118;-75
2021/01/09 08:37:53;;;;;;;66.35;36.00;;;;;;;0.86;84.01;99379.69;1790165;79;21094;-74
2021/01/09 08:40:24;;;;;;;62.73;32.00;;;;;;;0.86;83.91;99375.62;1787817;79;21063;-73
2021/01/09 08:43:06;;;;;;;65.25;36.13;;;;;;;0.88;83.94;99375.36;1723240;82;21544;-78
2021/01/09 08:45:43;;;;;;;61.35;32.20;;;;;;;0.88;83.96;99374.83;1710845;82;21201;-73
2021/01/09 08:48:25;;;;;;;;;;;;;;;0.90;83.91;99371.33;1753185;81;21170;-78
2021/01/09 08:51:11;;;;;;;57.80;29.97;;;;;;;0.91;83.80;99368.87;1694947;82;20267;-77
2021/01/09 08:54:02;;;;;;;62.75;33.95;;;;;;;0.94;83.82;99368.36;1722086;82;21126;-75
2021/01/09 08:56:32;;;;;;;59.00;32.50;;;;;;;0.92;83.69;99367.79;1786845;79;21609;-77
2021/01/09 09:02:08;;;;;;;64.58;35.83;;;;;;;1.00;83.70;99363.80;1794700;79;22451;-78
2021/01/09 09:04:35;;;;;;;67.10;37.40;;;;;;;0.97;83.62;99364.32;1761125;80;21000;-76
2021/01/09 09:07:05;;;;;;;61.28;33.42;;;;;;;0.96;83.49;99362.14;1701531;81;21383;-75
2021/01/09 09:09:40;;;;;;;65.25;34.55;;;;;;;0.97;83.44;99365.67;1694577;84;21169;-76
2021/01/09 09:12:08;;;;;;;58.78;31.02;;;;;;;0.94;83.12;99363.45;1757400;80;21161;-79
2021/01/09 09:14:35;;;;;;;67.08;34.98;;;;;;;0.95;83.19;99361.88;1729066;80;21098;-77
2021/01/09 09:17:04;;;;;;;57.05;29.75;;;;;;;0.99;82.93;99361.34;1753335;80;21169;-76
2021/01/09 09:19:37;;;;;;;53.52;30.55;;;;;;;0.97;82.71;99353.47;1750383;80;21216;-77
2021/01/09 09:22:06;;;;;;;57.53;31.62;;;;;;;0.94;82.66;99351.25;1749417;80;21431;-76
2021/01/09 09:24:42;;;;;;;55.63;30.40;;;;;;;0.95;82.72;99353.73;1746607;80;20972;-79
2021/01/09 09:27:31;;;;;;;60.70;29.48;;;;;;;1.00;82.65;99355.66;1749424;80;21161;-80
2021/01/09 09:30:14;;;;;;;52.13;30.45;;;;;;;1.05;82.68;99357.58;1755337;80;21153;-76
2021/01/09 09:32:44;;;;;;;54.58;30.50;;;;;;;1.08;82.36;99345.67;1752533;80;21384;-78
2021/01/09 09:35:26;;;;;;;55.78;30.57;;;;;;;1.12;82.16;99343.25;1745203;80;21153;-79
2021/01/09 09:38:02;;;;;;;57.85;29.27;;;;;;;1.12;81.88;99340.54;1758233;80;21121;-77
2021/01/09 09:40:34;;;;;;;60.65;29.18;;;;;;;1.13;81.64;99345.41;1753472;80;21153;-75
2021/01/09 09:43:19;;;;;;;62.45;31.52;;;;;;;1.16;81.62;99334.84;1748430;80;21109;-78
2021/01/09 09:46:03;;;;;;;54.65;29.98;;;;;;;1.18;81.41;99334.59;1749087;80;22267;-79
2021/01/09 09:48:37;;;;;;;52.62;29.42;;;;;;;1.20;81.05;99332.44;1744155;82;21158;-78
2021/01/09 09:51:07;;;;;;;53.10;27.52;;;;;;;1.19;80.85;99329.45;1750433;80;21235;-80
2021/01/09 09:53:35;;;;;;;55.15;29.18;;;;;;;1.15;80.56;99325.08;1750906;80;21102;-79
2021/01/09 09:56:20;;;;;;;55.30;29.35;;;;;;;1.16;80.62;99326.70;1749413;80;21111;-78
2021/01/09 09:59:01;;;;;;;50.48;27.42;;;;;;;1.19;80.43;99326.73;1742248;80;23916;-78
2021/01/09 10:01:30;;;;;;;47.50;27.85;;;;;;;1.20;79.92;99327.83;1732074;80;21121;-78
2021/01/09 10:03:58;;;;;;;41.73;24.60;;;;;;;1.21;79.97;99327.30;1721702;82;21199;-77
2021/01/09 10:06:39;;;;;;;54.13;30.82;;;;;;;1.19;79.92;99326.73;1722700;82;21134;-77
2021/01/09 10:09:14;;;;;;;55.30;29.67;;;;;;;1.22;80.17;99330.28;1705764;82;21151;-78
2021/01/09 10:11:44;;;;;;;50.08;27.05;;;;;;;1.26;79.67;99334.65;1724948;82;21205;-79
2021/01/09 10:14:13;;;;;;;46.73;26.80;;;;;;;1.27;79.79;99333.02;1712224;82;21615;-78
2021/01/09 10:16:42;;;;;;;47.25;23.85;;;;;;;1.29;79.63;99328.69;1731104;82;21099;-78
2021/01/09 10:19:11;;;;;;;44.30;25.55;;;;;;;1.30;79.46;99331.67;1721160;82;21151;-78
2021/01/09 10:21:39;;;;;;;47.65;26.27;;;;;;;1.31;79.05;99328.69;1738144;82;21131;-78
2021/01/09 10:24:07;;;;;;;49.05;27.55;;;;;;;1.30;78.78;99323.52;1729767;82;21413;-79
2021/01/09 10:26:35;;;;;;;47.20;26.60;;;;;;;1.29;78.50;99328.69;1712981;82;21131;-79
2021/01/09 10:29:03;;;;;;;45.15;25.08;;;;;;;1.28;78.58;99327.06;1733580;82;21195;-79
2021/01/09 10:31:37;;;;;;;44.58;24.52;;;;;;;1.32;78.64;99324.91;1735682;82;21163;-78
2021/01/09 10:34:07;;;;;;;53.63;26.40;;;;;;;1.36;78.39;99325.73;1733292;81;22394;-79
2021/01/09 10:36:37;;;;;;;49.50;25.77;;;;;;;1.38;78.28;99322.23;1714175;82;21383;-79
2021/01/09 10:39:06;;;;;;;53.28;28.25;;;;;;;1.39;77.95;99317.89;1641003;85;21129;-78
2021/01/09 10:41:34;;;;;;;44.10;25.97;;;;;;;1.43;77.89;99323.05;1710646;82;21159;-78
2021/01/09 10:44:05;;;;;;;46.08;25.02;;;;;;;1.43;77.67;99323.05;1667392;85;21163;-79
2021/01/09 10:46:33;;;;;;;41.23;24.05;;;;;;;1.46;77.60;99327.16;1710974;82;21165;-82
2021/01/09 10:49:02;;;;;;;52.08;28.80;;;;;;;1.47;77.50;99318.48;1669017;85;21394;-76
2021/01/09 10:51:30;;;;;;;52.98;29.40;;;;;;;1.44;77.46;99315.20;1660697;85;21173;-77
2021/01/09 10:54:01;;;;;;;52.00;29.00;;;;;;;1.48;77.52;99318.21;1733238;82;21542;-77
2021/01/09 10:56:28;;;;;;;53.58;28.75;;;;;;;1.54;77.50;99319.03;1736715;82;21123;-77
2021/01/09 10:58:56;;;;;;;62.38;31.87;;;;;;;1.58;77.42;99318.79;1712017;82;21160;-80
2021/01/09 11:01:24;;;;;;;51.28;30.15;;;;;;;1.63;77.41;99316.63;1732300;80;21612;-80
2021/01/09 11:03:51;;;;;;;55.78;31.17;;;;;;;1.68;77.40;99320.20;1730180;80;21110;-78
2021/01/09 11:06:22;;;;;;;51.25;30.88;;;;;;;1.69;76.73;99316.38;1751266;80;21151;-78
2021/01/09 11:08:50;;;;;;;57.80;29.92;;;;;;;1.72;76.68;99320.48;1768502;80;21209;-78
2021/01/09 11:11:19;;;;;;;48.55;28.90;;;;;;;1.74;76.13;99314.22;1747458;80;21087;-79
2021/01/09 11:13:48;;;;;;;50.80;26.97;;;;;;;1.72;75.72;99317.77;1748101;80;21207;-79
2021/01/09 11:16:24;;;;;;;47.48;27.40;;;;;;;1.70;75.44;99316.67;1745446;80;21177;-79
2021/01/09 11:18:52;;;;;;;50.65;28.38;;;;;;;1.73;75.39;99318.03;1764751;80;21129;-79
2021/01/09 11:21:20;;;;;;;49.45;27.25;;;;;;;1.81;75.33;99320.77;1749693;80;21602;-76
2021/01/09 11:23:47;;;;;;;46.15;27.00;;;;;;;1.93;74.66;99330.87;1761512;80;21102;-80
2021/01/09 11:26:25;;;;;;;46.77;26.42;;;;;;;1.98;73.92;99319.75;1757052;80;22306;-78
2021/01/09 11:28:53;;;;;;;47.93;27.27;;;;;;;2.02;73.59;99322.20;1756308;80;21424;-77
2021/01/09 11:31:21;;;;;;;50.85;27.37;;;;;;;2.05;73.23;99318.94;1756111;80;21094;-79
2021/01/09 11:33:49;;;;;;;47.85;27.37;;;;;;;2.11;73.19;99316.52;1750928;80;21142;-78
2021/01/09 11:36:17;;;;;;;50.60;27.87;;;;;;;2.17;72.41;99321.41;1748205;80;21690;-77
2021/01/09 11:38:47;;;;;;;48.00;27.95;;;;;;;2.17;72.06;99314.08;1698609;83;21212;-79
2021/01/09 11:41:16;;;;;;;44.67;26.12;;;;;;;2.17;71.79;99313.25;1716929;82;21133;-81
2021/01/09 11:43:44;;;;;;;41.45;24.15;;;;;;;2.21;71.41;99310.82;1749876;80;21130;-77
2021/01/09 11:46:12;;;;;;;50.40;28.15;;;;;;;2.26;71.29;99317.63;1757730;80;21109;-78
2021/01/09 11:48:42;;;;;;;50.55;27.48;;;;;;;2.43;71.30;99312.77;1765575;80;21236;-77
2021/01/09 11:51:10;;;;;;;39.92;23.47;;;;;;;2.77;71.69;99311.94;1764431;80;21370;-78
2021/01/09 11:53:39;;;;;;;43.65;23.77;;;;;;;3.23;70.50;99306.98;1749130;80;21163;-77
2021/01/09 11:56:09;;;;;;;37.30;22.13;;;;;;;3.63;69.59;99311.20;1760060;80;21153;-78
2021/01/09 11:58:36;;;;;;;35.90;21.45;;;;;;;3.94;68.34;99310.81;1746797;80;21567;-79
2021/01/09 12:01:04;;;;;;;36.38;20.20;;;;;;;4.19;65.07;99303.03;1744736;80;21162;-78
2021/01/09 12:03:31;;;;;;;37.70;21.00;;;;;;;4.30;63.85;99312.52;1733685;82;21457;-78
2021/01/09 12:05:59;;;;;;;35.48;21.40;;;;;;;4.30;63.65;99309.79;1736301;82;21189;-79
2021/01/09 12:08:27;;;;;;;37.45;22.82;;;;;;;4.36;63.01;99322.28;1733673;81;21151;-77
2021/01/09 12:10:55;;;;;;;35.45;22.05;;;;;;;4.36;63.43;99320.92;1733372;82;21182;-79
2021/01/09 12:13:22;;;;;;;35.78;22.15;;;;;;;4.45;63.04;99316.48;1735424;82;21170;-78
2021/01/09 12:15:50;;;;;;;38.13;23.05;;;;;;;4.32;61.82;99324.77;1737655;82;21162;-78
2021/01/09 12:18:19;;;;;;;38.75;22.50;;;;;;;3.91;61.84;99318.98;1712154;82;21175;-77
2021/01/09 12:20:48;;;;;;;39.90;22.82;;;;;;;3.63;62.28;99326.19;1702901;83;21612;-78
2021/01/09 12:23:16;;;;;;;33.83;20.23;;;;;;;3.49;62.89;99326.52;1703924;83;21130;-77
2021/01/09 12:25:44;;;;;;;41.08;22.20;;;;;;;3.39;63.33;99321.39;1715527;83;21095;-77
2021/01/09 12:28:12;;;;;;;39.90;22.37;;;;;;;3.27;62.80;99326.31;1715595;83;21366;-78
2021/01/09 12:30:39;;;;;;;40.00;22.37;;;;;;;3.02;62.97;99328.00;1715458;83;21622;-76